Fure West — OZ2100 — position and weather

sailwx.info

Track history (hours):
 
Tides and Currents Weather Stations Pressure Air Temp Water Temp Dewpoint Dewpoint Depression Visibility Wind Speed Wind Dir Waves Ship Positions

Fure West

Last reported at 2016-Sep-09 05:29 UTC. Time now 2016-Sep-28 18:51 UTC.
Position N 55°28' E 010°32'.
Warning: this ship's position is 19 days out of date.

Length 144 m; draft 5.8 m.

MMSI: 231775000.

Date/timePositionNaut miles runAvg speedWind from/ knotsBaromVisibWave heightAir tempDewpointWater temp
2016-Sep-09 05:29N 55°28' E 010°32'3 2.7
2016-Sep-09 04:31N 55°31' E 010°34'5 5.5
2016-Sep-09 03:33N 55°36' E 010°33'8 8.2
2016-Sep-09 02:33N 55°41' E 010°44'9 9.4
2016-Sep-09 01:33N 55°50' E 010°49'13 9.2
2016-Sep-09 00:07N 56°01' E 011°04'5 9.3
2016-Sep-08 23:33N 56°05' E 011°08'10 9.6
2016-Sep-08 22:29N 56°13' E 011°19'9 9.5
2016-Sep-08 21:33N 56°21' E 011°27'10 9.7
2016-Sep-08 20:33N 56°30' E 011°35'9 9.5
2016-Sep-08 19:33N 56°38' E 011°44'9 9.2
2016-Sep-08 18:33N 56°46' E 011°52'10 9.6
2016-Sep-08 17:33N 56°55' E 011°46'10 9.7
2016-Sep-08 16:33N 57°04' E 011°40'9 9.5
2016-Sep-08 15:33N 57°13' E 011°34'9 9.4
2016-Sep-08 14:33N 57°22' E 011°28'10 9.6
2016-Sep-08 13:33N 57°31' E 011°34'6 6.3
2016-Sep-08 12:32N 57°36' E 011°41'0 0.0
2016-Sep-08 11:33N 57°36' E 011°41'0 0.0
2016-Sep-08 10:24N 57°36' E 011°41'0 0.0
2016-Sep-08 09:32N 57°36' E 011°41'0 0.0
2016-Sep-08 08:32N 57°36' E 011°41'0 0.0
2016-Sep-08 07:21N 57°36' E 011°41'0 0.0
2016-Sep-08 06:33N 57°36' E 011°41'0 0.1
2016-Sep-08 05:33N 57°36' E 011°41'9 8.7
2016-Sep-08 04:33N 57°38' E 011°25'9 9.0
2016-Sep-08 03:33N 57°43' E 011°11'9 9.0
2016-Sep-08 02:34N 57°47' E 010°57'11 9.1
2016-Sep-08 01:21N 57°51' E 010°37'44 9.0
2016-Sep-07 20:30N 57°39' E 009°18'366 9.1
2016-Sep-06 04:07N 54°52' W 000°28'6 9.3
2016-Sep-06 03:27N 54°49' W 000°38'8 9.2
2016-Sep-06 02:32N 54°46' W 000°52'11 0.4
2016-Sep-05 00:33N 54°40' W 001°07'1110.7
2016-Sep-04 23:33N 54°46' W 000°52'1412.3
2016-Sep-04 22:25N 54°51' W 000°29'1211.8
2016-Sep-04 21:24N 54°56' W 000°10'42011.7
2016-Sep-03 09:25N 58°11' E 011°04'910.6
2016-Sep-03 08:33N 58°17' E 011°17'6 0.2
2016-Sep-02 06:28N 58°21' E 011°26'3 3.3
2016-Sep-02 05:33N 58°20' E 011°21'0 0.1
2016-Sep-02 04:32N 58°20' E 011°21'0 0.0
2016-Sep-02 03:32N 58°20' E 011°21'0 0.0
2016-Sep-02 02:32N 58°20' E 011°21'0 0.0
2016-Sep-02 01:32N 58°20' E 011°21'0 0.0
2016-Sep-02 00:20N 58°20' E 011°21'0 0.0
2016-Sep-01 23:32N 58°20' E 011°21'0 0.0
2016-Sep-01 22:32N 58°20' E 011°21'0 0.0
2016-Sep-01 21:32N 58°20' E 011°21'0 0.0
2016-Sep-01 20:32N 58°20' E 011°21'0 0.0
2016-Sep-01 19:32N 58°20' E 011°21'0 0.0
2016-Sep-01 18:32N 58°20' E 011°21'0 0.0
2016-Sep-01 17:32N 58°20' E 011°21'0 0.0
2016-Sep-01 16:32N 58°20' E 011°21'0 0.0
2016-Sep-01 15:26N 58°20' E 011°21'0 0.0
2016-Sep-01 14:32N 58°20' E 011°21'0 0.0
2016-Sep-01 13:26N 58°20' E 011°21'0 0.0
2016-Sep-01 12:26N 58°20' E 011°21'0 0.0
2016-Sep-01 11:32N 58°20' E 011°21'0 0.0
2016-Sep-01 10:32N 58°20' E 011°21'0 0.0
2016-Sep-01 09:32N 58°20' E 011°21'0 0.0
2016-Sep-01 08:32N 58°20' E 011°21'0 0.0
2016-Sep-01 07:32N 58°20' E 011°21'0 0.0
2016-Sep-01 06:32N 58°20' E 011°21'0 0.0
2016-Sep-01 05:32N 58°20' E 011°21'0 0.0
2016-Sep-01 04:32N 58°20' E 011°21'0 0.0
2016-Sep-01 03:32N 58°20' E 011°21'0 0.0
2016-Sep-01 02:32N 58°20' E 011°21'1 1.3
2016-Sep-01 01:33N 58°19' E 011°21'10 8.4
2016-Sep-01 00:24N 58°11' E 011°08'9 9.0
2016-Aug-31 23:27N 58°03' E 011°11'19 9.9
2016-Aug-31 21:33N 57°45' E 011°17'1010.0
2016-Aug-31 20:33N 57°35' E 011°21'1010.1
2016-Aug-31 19:33N 57°25' E 011°28'109 9.1
2016-Aug-31 07:33N 55°38' E 010°47'11 8.7
2016-Aug-31 06:18N 55°29' E 010°55'7 9.0
2016-Aug-31 05:33N 55°23' E 011°02'9 8.9
2016-Aug-31 04:33N 55°14' E 011°06'9 8.7
2016-Aug-31 03:33N 55°06' E 011°03'8 8.3
2016-Aug-31 02:33N 54°58' E 010°60'8 7.6
2016-Aug-31 01:33N 54°51' E 010°53'8 7.9
2016-Aug-31 00:33N 54°43' E 010°53'8 8.3
2016-Aug-30 23:33N 54°38' E 011°04'9 8.6
2016-Aug-30 22:33N 54°34' E 011°18'9 8.5
2016-Aug-30 21:33N 54°30' E 011°31'9 8.6
2016-Aug-30 20:33N 54°26' E 011°44'9 9.0
2016-Aug-30 19:33N 54°19' E 011°52'6 6.4
2016-Aug-30 18:32N 54°13' E 011°56'0 0.0
2016-Aug-30 17:32N 54°13' E 011°56'0 0.0
2016-Aug-30 16:32N 54°13' E 011°56'0 0.0
2016-Aug-30 15:32N 54°13' E 011°56'0 0.0
2016-Aug-30 14:23N 54°13' E 011°56'0 0.0
2016-Aug-30 13:32N 54°13' E 011°56'0 0.0
2016-Aug-30 12:32N 54°13' E 011°56'0 0.0
2016-Aug-30 11:33N 54°13' E 011°56'0 0.0
2016-Aug-30 10:32N 54°13' E 011°56'0 0.0
2016-Aug-30 09:32N 54°13' E 011°56'0 0.0
2016-Aug-30 08:32N 54°13' E 011°56'0 0.0
2016-Aug-30 07:32N 54°13' E 011°56'0 0.0
2016-Aug-30 06:26N 54°13' E 011°56'0 0.0
2016-Aug-30 05:32N 54°13' E 011°56'  
Track history (hours):
 
Tides and Currents Weather Stations Pressure Air Temp Water Temp Dewpoint Dewpoint Depression Visibility Wind Speed Wind Dir Waves Ship Positions

Fure West

Last reported at 2016-Sep-09 05:29 UTC. Time now 2016-Sep-28 18:51 UTC.
Position N 55°28' E 010°32'.
Warning: this ship's position is 19 days out of date.

Length 144 m; draft 5.8 m.

MMSI: 231775000.

Date/timePositionNaut miles runAvg speedWind from/ knotsBaromVisibWave heightAir tempDewpointWater temp
2016-Sep-09 05:29N 55°28' E 010°32'3 2.7
2016-Sep-09 04:31N 55°31' E 010°34'5 5.5
2016-Sep-09 03:33N 55°36' E 010°33'8 8.2
2016-Sep-09 02:33N 55°41' E 010°44'9 9.4
2016-Sep-09 01:33N 55°50' E 010°49'13 9.2
2016-Sep-09 00:07N 56°01' E 011°04'5 9.3
2016-Sep-08 23:33N 56°05' E 011°08'10 9.6
2016-Sep-08 22:29N 56°13' E 011°19'9 9.5
2016-Sep-08 21:33N 56°21' E 011°27'10 9.7
2016-Sep-08 20:33N 56°30' E 011°35'9 9.5
2016-Sep-08 19:33N 56°38' E 011°44'9 9.2
2016-Sep-08 18:33N 56°46' E 011°52'10 9.6
2016-Sep-08 17:33N 56°55' E 011°46'10 9.7
2016-Sep-08 16:33N 57°04' E 011°40'9 9.5
2016-Sep-08 15:33N 57°13' E 011°34'9 9.4
2016-Sep-08 14:33N 57°22' E 011°28'10 9.6
2016-Sep-08 13:33N 57°31' E 011°34'6 6.3
2016-Sep-08 12:32N 57°36' E 011°41'0 0.0
2016-Sep-08 11:33N 57°36' E 011°41'0 0.0
2016-Sep-08 10:24N 57°36' E 011°41'0 0.0
2016-Sep-08 09:32N 57°36' E 011°41'0 0.0
2016-Sep-08 08:32N 57°36' E 011°41'0 0.0
2016-Sep-08 07:21N 57°36' E 011°41'0 0.0
2016-Sep-08 06:33N 57°36' E 011°41'0 0.1
2016-Sep-08 05:33N 57°36' E 011°41'9 8.7
2016-Sep-08 04:33N 57°38' E 011°25'9 9.0
2016-Sep-08 03:33N 57°43' E 011°11'9 9.0
2016-Sep-08 02:34N 57°47' E 010°57'11 9.1
2016-Sep-08 01:21N 57°51' E 010°37'44 9.0
2016-Sep-07 20:30N 57°39' E 009°18'366 9.1
2016-Sep-06 04:07N 54°52' W 000°28'6 9.3
2016-Sep-06 03:27N 54°49' W 000°38'8 9.2
2016-Sep-06 02:32N 54°46' W 000°52'11 0.4
2016-Sep-05 00:33N 54°40' W 001°07'1110.7
2016-Sep-04 23:33N 54°46' W 000°52'1412.3
2016-Sep-04 22:25N 54°51' W 000°29'1211.8
2016-Sep-04 21:24N 54°56' W 000°10'42011.7
2016-Sep-03 09:25N 58°11' E 011°04'910.6
2016-Sep-03 08:33N 58°17' E 011°17'6 0.2
2016-Sep-02 06:28N 58°21' E 011°26'3 3.3
2016-Sep-02 05:33N 58°20' E 011°21'0 0.1
2016-Sep-02 04:32N 58°20' E 011°21'0 0.0
2016-Sep-02 03:32N 58°20' E 011°21'0 0.0
2016-Sep-02 02:32N 58°20' E 011°21'0 0.0
2016-Sep-02 01:32N 58°20' E 011°21'0 0.0
2016-Sep-02 00:20N 58°20' E 011°21'0 0.0
2016-Sep-01 23:32N 58°20' E 011°21'0 0.0
2016-Sep-01 22:32N 58°20' E 011°21'0 0.0
2016-Sep-01 21:32N 58°20' E 011°21'0 0.0
2016-Sep-01 20:32N 58°20' E 011°21'0 0.0
2016-Sep-01 19:32N 58°20' E 011°21'0 0.0
2016-Sep-01 18:32N 58°20' E 011°21'0 0.0
2016-Sep-01 17:32N 58°20' E 011°21'0 0.0
2016-Sep-01 16:32N 58°20' E 011°21'0 0.0
2016-Sep-01 15:26N 58°20' E 011°21'0 0.0
2016-Sep-01 14:32N 58°20' E 011°21'0 0.0
2016-Sep-01 13:26N 58°20' E 011°21'0 0.0
2016-Sep-01 12:26N 58°20' E 011°21'0 0.0
2016-Sep-01 11:32N 58°20' E 011°21'0 0.0
2016-Sep-01 10:32N 58°20' E 011°21'0 0.0
2016-Sep-01 09:32N 58°20' E 011°21'0 0.0
2016-Sep-01 08:32N 58°20' E 011°21'0 0.0
2016-Sep-01 07:32N 58°20' E 011°21'0 0.0
2016-Sep-01 06:32N 58°20' E 011°21'0 0.0
2016-Sep-01 05:32N 58°20' E 011°21'0 0.0
2016-Sep-01 04:32N 58°20' E 011°21'0 0.0
2016-Sep-01 03:32N 58°20' E 011°21'0 0.0
2016-Sep-01 02:32N 58°20' E 011°21'1 1.3
2016-Sep-01 01:33N 58°19' E 011°21'10 8.4
2016-Sep-01 00:24N 58°11' E 011°08'9 9.0
2016-Aug-31 23:27N 58°03' E 011°11'19 9.9
2016-Aug-31 21:33N 57°45' E 011°17'1010.0
2016-Aug-31 20:33N 57°35' E 011°21'1010.1
2016-Aug-31 19:33N 57°25' E 011°28'109 9.1
2016-Aug-31 07:33N 55°38' E 010°47'11 8.7
2016-Aug-31 06:18N 55°29' E 010°55'7 9.0
2016-Aug-31 05:33N 55°23' E 011°02'9 8.9
2016-Aug-31 04:33N 55°14' E 011°06'9 8.7
2016-Aug-31 03:33N 55°06' E 011°03'8 8.3
2016-Aug-31 02:33N 54°58' E 010°60'8 7.6
2016-Aug-31 01:33N 54°51' E 010°53'8 7.9
2016-Aug-31 00:33N 54°43' E 010°53'8 8.3
2016-Aug-30 23:33N 54°38' E 011°04'9 8.6
2016-Aug-30 22:33N 54°34' E 011°18'9 8.5
2016-Aug-30 21:33N 54°30' E 011°31'9 8.6
2016-Aug-30 20:33N 54°26' E 011°44'9 9.0
2016-Aug-30 19:33N 54°19' E 011°52'6 6.4
2016-Aug-30 18:32N 54°13' E 011°56'0 0.0
2016-Aug-30 17:32N 54°13' E 011°56'0 0.0
2016-Aug-30 16:32N 54°13' E 011°56'0 0.0
2016-Aug-30 15:32N 54°13' E 011°56'0 0.0
2016-Aug-30 14:23N 54°13' E 011°56'0 0.0
2016-Aug-30 13:32N 54°13' E 011°56'0 0.0
2016-Aug-30 12:32N 54°13' E 011°56'0 0.0
2016-Aug-30 11:33N 54°13' E 011°56'0 0.0
2016-Aug-30 10:32N 54°13' E 011°56'0 0.0
2016-Aug-30 09:32N 54°13' E 011°56'0 0.0
2016-Aug-30 08:32N 54°13' E 011°56'0 0.0
2016-Aug-30 07:32N 54°13' E 011°56'0 0.0
2016-Aug-30 06:26N 54°13' E 011°56'0 0.0
2016-Aug-30 05:32N 54°13' E 011°56'  

Dump ship's entire track history